F00

Jones Field Airport

Bonham, Texas, USA
METAR KF00 221510Z AUTO 06013KT 10SM RA BKN005 BKN016 OVC060 21/21 A2997 RMK AO2 P0001 T02150213
Observed Flight Rules
Sep-22 @ 15:10 UTC (37 minutes ago) Instrument Flight Rules
Wind Visibility Clouds Conditions
60° at 13 knots 10 miles
Temperatures Readings Precipitation
Current 22°C / 72°F
Dewpoint 21°C / 70°F
Humidity 94%
Altimeter 29.97" Hg
Pressure 1015 hPa
Elevation 188
Current Rain 0.01
METAR KF00 221510Z AUTO 06013KT 10SM RA BKN005 BKN016 OVC060 21/21 A2997 RMK AO2 P0001 T02150213
Observed Flight Rules
Sep-22 @ 15:10 UTC
(37 minutes ago)
IFR
Wind Visibility
60° at 13 knots 10 miles
Clouds
Conditions
Temperature Dewpoint
22°C / 72°F 21°C / 70°F
Humidity Altimeter Pressure
94% 29.97" Hg 1015 hPa
Current Rain
0.01